sensor_id;sensor_type;location;lat;lon;timestamp;P1;P2;P0
57037;PMS5003;59942;49.304;8.256;2022-07-23T00:00:45;73.00;63.00;51.00
57037;PMS5003;59942;49.304;8.256;2022-07-23T00:03:13;73.40;63.20;51.60
57037;PMS5003;59942;49.304;8.256;2022-07-23T00:05:40;75.00;63.00;51.00
57037;PMS5003;59942;49.304;8.256;2022-07-23T00:08:10;73.00;62.20;51.00
57037;PMS5003;59942;49.304;8.256;2022-07-23T00:10:39;74.40;63.00;51.00
57037;PMS5003;59942;49.304;8.256;2022-07-23T00:13:07;77.40;64.80;52.60
57037;PMS5003;59942;49.304;8.256;2022-07-23T00:15:34;75.60;63.00;51.00
57037;PMS5003;59942;49.304;8.256;2022-07-23T00:18:01;72.60;61.40;50.60
57037;PMS5003;59942;49.304;8.256;2022-07-23T00:20:31;72.60;61.40;51.00
57037;PMS5003;59942;49.304;8.256;2022-07-23T00:22:58;72.60;60.60;49.00
57037;PMS5003;59942;49.304;8.256;2022-07-23T00:25:26;72.40;61.80;50.60
57037;PMS5003;59942;49.304;8.256;2022-07-23T00:27:59;76.80;64.60;51.40
57037;PMS5003;59942;49.304;8.256;2022-07-23T00:30:27;84.60;70.40;63.40
57037;PMS5003;59942;49.304;8.256;2022-07-23T00:32:59;72.80;61.80;51.00
57037;PMS5003;59942;49.304;8.256;2022-07-23T00:35:50;73.00;61.00;49.80
57037;PMS5003;59942;49.304;8.256;2022-07-23T00:38:25;79.60;64.80;52.20
57037;PMS5003;59942;49.304;8.256;2022-07-23T00:40:52;77.20;62.20;51.00
57037;PMS5003;59942;49.304;8.256;2022-07-23T00:43:20;73.00;60.60;49.00
57037;PMS5003;59942;49.304;8.256;2022-07-23T00:45:48;73.00;63.00;51.00
57037;PMS5003;59942;49.304;8.256;2022-07-23T00:48:16;72.00;61.00;49.40
57037;PMS5003;59942;49.304;8.256;2022-07-23T00:50:43;77.60;64.40;52.20
57037;PMS5003;59942;49.304;8.256;2022-07-23T00:53:10;70.80;61.00;49.40
57037;PMS5003;59942;49.304;8.256;2022-07-23T00:55:38;72.00;61.00;49.00
57037;PMS5003;59942;49.304;8.256;2022-07-23T00:58:06;67.00;58.00;48.00
57037;PMS5003;59942;49.304;8.256;2022-07-23T01:00:35;73.00;60.00;49.00
57037;PMS5003;59942;49.304;8.256;2022-07-23T01:03:04;75.00;63.00;51.00
57037;PMS5003;59942;49.304;8.256;2022-07-23T01:05:32;72.00;60.80;49.00
57037;PMS5003;59942;49.304;8.256;2022-07-23T01:08:00;73.80;62.20;51.00
57037;PMS5003;59942;49.304;8.256;2022-07-23T01:10:27;73.60;62.80;51.40
57037;PMS5003;59942;49.304;8.256;2022-07-23T01:13:00;71.60;60.60;49.00
57037;PMS5003;59942;49.304;8.256;2022-07-23T01:15:32;72.40;61.80;51.00
57037;PMS5003;59942;49.304;8.256;2022-07-23T01:18:00;73.00;63.00;51.00
57037;PMS5003;59942;49.304;8.256;2022-07-23T01:20:27;73.00;62.60;51.00
57037;PMS5003;59942;49.304;8.256;2022-07-23T01:22:55;72.20;61.00;49.00
57037;PMS5003;59942;49.304;8.256;2022-07-23T01:25:24;70.80;61.00;49.40
57037;PMS5003;59942;49.304;8.256;2022-07-23T01:27:53;77.40;63.60;52.20
57037;PMS5003;59942;49.304;8.256;2022-07-23T01:30:23;71.60;60.60;49.00
57037;PMS5003;59942;49.304;8.256;2022-07-23T01:32:51;81.40;67.20;56.40
57037;PMS5003;59942;49.304;8.256;2022-07-23T01:35:18;73.40;61.00;49.00
57037;PMS5003;59942;49.304;8.256;2022-07-23T01:37:45;74.20;63.40;52.20
57037;PMS5003;59942;49.304;8.256;2022-07-23T01:40:16;73.00;60.80;50.20
57037;PMS5003;59942;49.304;8.256;2022-07-23T01:42:48;73.00;60.00;49.00
57037;PMS5003;59942;49.304;8.256;2022-07-23T01:45:17;72.40;60.00;49.00
57037;PMS5003;59942;49.304;8.256;2022-07-23T01:47:45;70.00;60.60;49.00
57037;PMS5003;59942;49.304;8.256;2022-07-23T01:50:14;72.80;61.00;49.40
57037;PMS5003;59942;49.304;8.256;2022-07-23T01:52:41;70.00;60.00;49.00
57037;PMS5003;59942;49.304;8.256;2022-07-23T01:55:09;74.20;61.00;49.00
57037;PMS5003;59942;49.304;8.256;2022-07-23T01:57:44;75.00;62.20;51.00
57037;PMS5003;59942;49.304;8.256;2022-07-23T02:00:11;83.80;69.00;59.80
57037;PMS5003;59942;49.304;8.256;2022-07-23T02:02:38;83.40;68.40;59.40
57037;PMS5003;59942;49.304;8.256;2022-07-23T02:05:05;73.20;62.80;51.00
57037;PMS5003;59942;49.304;8.256;2022-07-23T02:07:33;71.60;61.00;49.00
57037;PMS5003;59942;49.304;8.256;2022-07-23T02:10:00;73.60;62.40;51.00
57037;PMS5003;59942;49.304;8.256;2022-07-23T02:12:28;70.40;60.40;49.00
57037;PMS5003;59942;49.304;8.256;2022-07-23T02:14:55;70.00;60.00;49.00
57037;PMS5003;59942;49.304;8.256;2022-07-23T02:17:22;69.00;60.00;49.00
57037;PMS5003;59942;49.304;8.256;2022-07-23T02:19:49;69.20;60.00;49.00
57037;PMS5003;59942;49.304;8.256;2022-07-23T02:22:17;69.40;60.00;49.00
57037;PMS5003;59942;49.304;8.256;2022-07-23T02:24:43;70.00;60.20;49.00
57037;PMS5003;59942;49.304;8.256;2022-07-23T02:27:10;78.40;65.80;55.00
57037;PMS5003;59942;49.304;8.256;2022-07-23T02:29:37;68.20;59.20;49.00
57037;PMS5003;59942;49.304;8.256;2022-07-23T02:32:05;76.40;63.00;51.00
57037;PMS5003;59942;49.304;8.256;2022-07-23T02:34:33;70.00;60.00;49.00
57037;PMS5003;59942;49.304;8.256;2022-07-23T02:37:00;69.40;60.00;49.00
57037;PMS5003;59942;49.304;8.256;2022-07-23T02:39:27;70.00;60.00;49.00
57037;PMS5003;59942;49.304;8.256;2022-07-23T02:41:54;73.80;62.60;51.00
57037;PMS5003;59942;49.304;8.256;2022-07-23T02:44:21;71.00;61.00;49.40
57037;PMS5003;59942;49.304;8.256;2022-07-23T02:46:51;69.00;60.00;49.00
57037;PMS5003;59942;49.304;8.256;2022-07-23T02:49:18;71.20;61.00;49.40
57037;PMS5003;59942;49.304;8.256;2022-07-23T02:51:45;73.20;62.80;51.40
57037;PMS5003;59942;49.304;8.256;2022-07-23T02:54:13;69.00;60.00;49.00
57037;PMS5003;59942;49.304;8.256;2022-07-23T02:56:40;71.20;60.60;49.40
57037;PMS5003;59942;49.304;8.256;2022-07-23T02:59:11;68.00;58.80;48.60
57037;PMS5003;59942;49.304;8.256;2022-07-23T03:01:38;75.00;64.20;53.20
57037;PMS5003;59942;49.304;8.256;2022-07-23T03:04:08;69.80;60.00;49.00
57037;PMS5003;59942;49.304;8.256;2022-07-23T03:06:35;67.00;58.00;49.00
57037;PMS5003;59942;49.304;8.256;2022-07-23T03:09:05;68.60;59.60;49.00
57037;PMS5003;59942;49.304;8.256;2022-07-23T03:11:32;70.00;60.00;49.00
57037;PMS5003;59942;49.304;8.256;2022-07-23T03:13:59;70.00;60.20;49.40
57037;PMS5003;59942;49.304;8.256;2022-07-23T03:16:26;69.80;60.20;49.00
57037;PMS5003;59942;49.304;8.256;2022-07-23T03:18:53;67.40;58.40;49.00
57037;PMS5003;59942;49.304;8.256;2022-07-23T03:21:20;67.80;58.80;48.80
57037;PMS5003;59942;49.304;8.256;2022-07-23T03:23:47;69.60;60.00;49.00
57037;PMS5003;59942;49.304;8.256;2022-07-23T03:26:14;71.20;61.00;51.00
57037;PMS5003;59942;49.304;8.256;2022-07-23T03:28:41;71.80;61.60;50.40
57037;PMS5003;59942;49.304;8.256;2022-07-23T03:31:08;69.60;60.20;49.40
57037;PMS5003;59942;49.304;8.256;2022-07-23T03:33:35;67.40;58.40;49.00
57037;PMS5003;59942;49.304;8.256;2022-07-23T03:36:02;67.00;58.00;48.20
57037;PMS5003;59942;49.304;8.256;2022-07-23T03:38:34;68.60;59.60;49.00
57037;PMS5003;59942;49.304;8.256;2022-07-23T03:41:02;68.60;59.60;48.80
57037;PMS5003;59942;49.304;8.256;2022-07-23T03:43:31;67.80;58.80;49.00
57037;PMS5003;59942;49.304;8.256;2022-07-23T03:45:58;72.20;60.00;49.00
57037;PMS5003;59942;49.304;8.256;2022-07-23T03:48:25;70.00;60.00;49.00
57037;PMS5003;59942;49.304;8.256;2022-07-23T03:50:52;71.60;60.00;49.00
57037;PMS5003;59942;49.304;8.256;2022-07-23T03:53:22;70.00;60.00;49.00
57037;PMS5003;59942;49.304;8.256;2022-07-23T03:55:58;70.80;60.00;49.00
57037;PMS5003;59942;49.304;8.256;2022-07-23T03:58:31;72.00;60.60;49.00
57037;PMS5003;59942;49.304;8.256;2022-07-23T04:01:02;70.00;60.20;49.00
57037;PMS5003;59942;49.304;8.256;2022-07-23T04:03:32;70.80;60.20;49.00
57037;PMS5003;59942;49.304;8.256;2022-07-23T04:06:12;69.40;60.00;49.00
57037;PMS5003;59942;49.304;8.256;2022-07-23T04:08:42;70.80;60.00;49.00
57037;PMS5003;59942;49.304;8.256;2022-07-23T04:11:15;70.00;60.20;49.00
57037;PMS5003;59942;49.304;8.256;2022-07-23T04:13:54;72.60;60.20;49.00
57037;PMS5003;59942;49.304;8.256;2022-07-23T04:16:34;70.60;60.40;49.00
57037;PMS5003;59942;49.304;8.256;2022-07-23T04:19:20;70.00;60.00;49.00
57037;PMS5003;59942;49.304;8.256;2022-07-23T04:21:48;72.00;60.20;49.00
57037;PMS5003;59942;49.304;8.256;2022-07-23T04:24:25;70.80;61.00;50.20
57037;PMS5003;59942;49.304;8.256;2022-07-23T04:54:05;70.00;59.20;49.00
57037;PMS5003;59942;49.304;8.256;2022-07-23T04:57:29;70.80;60.00;49.00
57037;PMS5003;59942;49.304;8.256;2022-07-23T05:00:33;72.40;60.20;49.00
57037;PMS5003;59942;49.304;8.256;2022-07-23T05:10:15;69.80;60.00;49.00
57037;PMS5003;59942;49.304;8.256;2022-07-23T05:35:21;70.00;60.00;49.00
57037;PMS5003;59942;49.304;8.256;2022-07-23T05:38:19;73.40;58.80;48.00
57037;PMS5003;59942;49.304;8.256;2022-07-23T05:41:47;70.80;58.80;48.00
57037;PMS5003;59942;49.304;8.256;2022-07-23T05:47:47;73.20;61.60;50.00
57037;PMS5003;59942;49.304;8.256;2022-07-23T05:51:08;70.00;60.00;49.00
57037;PMS5003;59942;49.304;8.256;2022-07-23T05:54:02;74.00;60.60;49.00
57037;PMS5003;59942;49.304;8.256;2022-07-23T05:57:30;74.60;61.00;49.00
57037;PMS5003;59942;49.304;8.256;2022-07-23T06:00:14;77.20;61.00;49.00
57037;PMS5003;59942;49.304;8.256;2022-07-23T06:08:49;72.40;60.60;49.00
57037;PMS5003;59942;49.304;8.256;2022-07-23T06:11:46;73.80;60.60;49.00
57037;PMS5003;59942;49.304;8.256;2022-07-23T06:14:43;73.80;60.40;49.00
57037;PMS5003;59942;49.304;8.256;2022-07-23T06:20:53;73.00;60.00;48.20
57037;PMS5003;59942;49.304;8.256;2022-07-23T06:23:47;72.80;61.40;49.00
57037;PMS5003;59942;49.304;8.256;2022-07-23T06:26:33;73.20;61.60;50.40
57037;PMS5003;59942;49.304;8.256;2022-07-23T06:31:57;70.00;60.60;49.00
57037;PMS5003;59942;49.304;8.256;2022-07-23T06:37:47;72.60;60.60;49.00
57037;PMS5003;59942;49.304;8.256;2022-07-23T06:40:54;74.60;60.00;49.00
57037;PMS5003;59942;49.304;8.256;2022-07-23T06:43:37;72.00;60.00;48.80
57037;PMS5003;59942;49.304;8.256;2022-07-23T06:47:01;80.40;68.40;56.60
57037;PMS5003;59942;49.304;8.256;2022-07-23T06:49:41;72.40;61.00;49.00
57037;PMS5003;59942;49.304;8.256;2022-07-23T06:52:15;73.80;60.00;48.60
57037;PMS5003;59942;49.304;8.256;2022-07-23T06:54:55;71.40;58.80;48.40
57037;PMS5003;59942;49.304;8.256;2022-07-23T06:57:39;70.40;60.60;49.00
57037;PMS5003;59942;49.304;8.256;2022-07-23T07:03:41;76.00;64.20;51.60
57037;PMS5003;59942;49.304;8.256;2022-07-23T07:06:23;70.80;59.60;49.00
57037;PMS5003;59942;49.304;8.256;2022-07-23T07:09:02;70.40;60.20;49.00
57037;PMS5003;59942;49.304;8.256;2022-07-23T07:14:49;71.20;60.00;49.00
57037;PMS5003;59942;49.304;8.256;2022-07-23T07:17:35;76.20;63.00;50.60
57037;PMS5003;59942;49.304;8.256;2022-07-23T07:20:32;73.00;60.00;49.00
57037;PMS5003;59942;49.304;8.256;2022-07-23T07:23:08;71.40;60.40;49.00
57037;PMS5003;59942;49.304;8.256;2022-07-23T07:25:52;68.40;58.00;48.00
57037;PMS5003;59942;49.304;8.256;2022-07-23T07:28:50;73.80;62.60;50.40
57037;PMS5003;59942;49.304;8.256;2022-07-23T07:31:23;73.00;61.00;50.20
57037;PMS5003;59942;49.304;8.256;2022-07-23T07:34:06;73.00;61.00;49.00
57037;PMS5003;59942;49.304;8.256;2022-07-23T07:36:59;76.20;63.60;51.00
57037;PMS5003;59942;49.304;8.256;2022-07-23T07:42:53;73.00;59.60;49.00
57037;PMS5003;59942;49.304;8.256;2022-07-23T07:45:26;73.00;61.00;49.00
57037;PMS5003;59942;49.304;8.256;2022-07-23T07:51:13;74.00;62.00;50.00
57037;PMS5003;59942;49.304;8.256;2022-07-23T07:57:56;72.40;60.40;49.00
57037;PMS5003;59942;49.304;8.256;2022-07-23T08:01:20;71.20;60.60;49.00
57037;PMS5003;59942;49.304;8.256;2022-07-23T08:04:38;74.60;60.00;49.00
57037;PMS5003;59942;49.304;8.256;2022-07-23T08:07:26;69.40;60.00;49.00
57037;PMS5003;59942;49.304;8.256;2022-07-23T08:10:29;70.60;60.00;49.00
57037;PMS5003;59942;49.304;8.256;2022-07-23T08:13:41;70.20;60.00;49.00
57037;PMS5003;59942;49.304;8.256;2022-07-23T08:16:34;72.00;60.00;49.00
57037;PMS5003;59942;49.304;8.256;2022-07-23T08:25:59;72.00;61.00;49.00
57037;PMS5003;59942;49.304;8.256;2022-07-23T08:28:53;75.00;63.40;51.80
57037;PMS5003;59942;49.304;8.256;2022-07-23T08:31:44;76.60;63.00;50.40
57037;PMS5003;59942;49.304;8.256;2022-07-23T08:34:53;71.20;60.00;49.00
57037;PMS5003;59942;49.304;8.256;2022-07-23T08:37:41;71.40;60.40;49.00
57037;PMS5003;59942;49.304;8.256;2022-07-23T08:40:12;70.00;60.60;49.00
57037;PMS5003;59942;49.304;8.256;2022-07-23T08:42:39;75.40;60.00;49.00
57037;PMS5003;59942;49.304;8.256;2022-07-23T08:45:07;82.40;66.40;52.20
57037;PMS5003;59942;49.304;8.256;2022-07-23T08:47:36;73.00;60.60;49.00
57037;PMS5003;59942;49.304;8.256;2022-07-23T08:50:05;78.00;63.00;49.00
57037;PMS5003;59942;49.304;8.256;2022-07-23T08:52:36;81.00;65.80;53.60
57037;PMS5003;59942;49.304;8.256;2022-07-23T08:55:06;77.20;64.00;51.00
57037;PMS5003;59942;49.304;8.256;2022-07-23T08:57:35;79.40;64.00;51.00
57037;PMS5003;59942;49.304;8.256;2022-07-23T09:00:05;73.80;63.00;51.00
57037;PMS5003;59942;49.304;8.256;2022-07-23T09:02:39;80.60;64.00;51.00
57037;PMS5003;59942;49.304;8.256;2022-07-23T09:05:08;72.80;61.40;50.60
57037;PMS5003;59942;49.304;8.256;2022-07-23T09:07:38;78.40;64.00;52.00
57037;PMS5003;59942;49.304;8.256;2022-07-23T09:10:30;83.60;65.60;51.00
57037;PMS5003;59942;49.304;8.256;2022-07-23T09:13:18;86.00;67.40;53.00
57037;PMS5003;59942;49.304;8.256;2022-07-23T09:15:59;92.60;69.00;51.80
57037;PMS5003;59942;49.304;8.256;2022-07-23T09:21:06;104.60;77.60;55.00
57037;PMS5003;59942;49.304;8.256;2022-07-23T09:23:48;99.60;71.20;54.00
57037;PMS5003;59942;49.304;8.256;2022-07-23T09:28:52;80.40;64.80;52.00
57037;PMS5003;59942;49.304;8.256;2022-07-23T09:31:21;112.60;75.40;57.20
57037;PMS5003;59942;49.304;8.256;2022-07-23T09:33:49;108.80;79.00;59.20
57037;PMS5003;59942;49.304;8.256;2022-07-23T09:36:25;108.00;76.80;57.40
57037;PMS5003;59942;49.304;8.256;2022-07-23T09:38:54;104.40;76.00;52.40
57037;PMS5003;59942;49.304;8.256;2022-07-23T09:41:21;94.80;76.60;58.40
57037;PMS5003;59942;49.304;8.256;2022-07-23T09:43:56;118.00;85.20;58.00
57037;PMS5003;59942;49.304;8.256;2022-07-23T09:46:27;116.60;88.60;60.60
57037;PMS5003;59942;49.304;8.256;2022-07-23T09:48:54;128.00;89.20;61.00
57037;PMS5003;59942;49.304;8.256;2022-07-23T09:51:23;169.20;122.60;70.40
57037;PMS5003;59942;49.304;8.256;2022-07-23T09:54:04;123.40;93.60;63.80
57037;PMS5003;59942;49.304;8.256;2022-07-23T09:56:31;98.20;75.60;57.60
57037;PMS5003;59942;49.304;8.256;2022-07-23T09:59:02;76.00;65.20;52.00
57037;PMS5003;59942;49.304;8.256;2022-07-23T10:01:38;104.00;78.40;60.40
57037;PMS5003;59942;49.304;8.256;2022-07-23T10:04:06;96.40;76.40;60.20
57037;PMS5003;59942;49.304;8.256;2022-07-23T10:06:34;86.80;71.80;63.00
57037;PMS5003;59942;49.304;8.256;2022-07-23T10:09:02;79.80;67.00;55.00
57037;PMS5003;59942;49.304;8.256;2022-07-23T10:11:34;89.00;72.00;56.60
57037;PMS5003;59942;49.304;8.256;2022-07-23T10:14:30;88.00;70.00;55.60
57037;PMS5003;59942;49.304;8.256;2022-07-23T10:17:14;78.20;64.00;51.60
57037;PMS5003;59942;49.304;8.256;2022-07-23T10:27:09;93.60;74.20;57.80
57037;PMS5003;59942;49.304;8.256;2022-07-23T10:36:18;112.40;85.80;61.40
57037;PMS5003;59942;49.304;8.256;2022-07-23T10:43:19;77.80;65.20;52.00
57037;PMS5003;59942;49.304;8.256;2022-07-23T10:49:23;79.80;67.80;56.60
57037;PMS5003;59942;49.304;8.256;2022-07-23T10:57:50;106.80;81.60;64.00
57037;PMS5003;59942;49.304;8.256;2022-07-23T11:00:26;103.60;77.40;60.00
57037;PMS5003;59942;49.304;8.256;2022-07-23T11:03:05;99.60;77.60;60.40
57037;PMS5003;59942;49.304;8.256;2022-07-23T11:05:53;91.20;75.40;69.60
57037;PMS5003;59942;49.304;8.256;2022-07-23T11:08:28;87.40;72.20;58.80
57037;PMS5003;59942;49.304;8.256;2022-07-23T11:11:22;85.00;70.60;58.00
57037;PMS5003;59942;49.304;8.256;2022-07-23T11:14:04;87.00;72.00;59.20
57037;PMS5003;59942;49.304;8.256;2022-07-23T11:16:57;85.80;71.40;61.20
57037;PMS5003;59942;49.304;8.256;2022-07-23T11:19:29;86.20;72.20;61.40
57037;PMS5003;59942;49.304;8.256;2022-07-23T11:22:00;84.00;70.00;60.80
57037;PMS5003;59942;49.304;8.256;2022-07-23T11:24:51;92.40;75.00;68.20
57037;PMS5003;59942;49.304;8.256;2022-07-23T11:27:42;86.40;72.20;63.60
57037;PMS5003;59942;49.304;8.256;2022-07-23T11:33:21;83.80;69.20;59.20
57037;PMS5003;59942;49.304;8.256;2022-07-23T11:36:22;84.00;70.80;60.20
57037;PMS5003;59942;49.304;8.256;2022-07-23T11:39:46;86.20;70.20;62.40
57037;PMS5003;59942;49.304;8.256;2022-07-23T11:42:33;85.20;71.60;60.00
57037;PMS5003;59942;49.304;8.256;2022-07-23T11:45:05;83.80;70.20;61.40
57037;PMS5003;59942;49.304;8.256;2022-07-23T11:47:58;84.40;69.80;60.00
57037;PMS5003;59942;49.304;8.256;2022-07-23T11:50:59;83.40;70.00;61.00
57037;PMS5003;59942;49.304;8.256;2022-07-23T11:54:05;79.80;67.00;57.20
57037;PMS5003;59942;49.304;8.256;2022-07-23T11:56:59;85.40;70.40;62.60
57037;PMS5003;59942;49.304;8.256;2022-07-23T11:59:32;81.60;68.20;58.60
57037;PMS5003;59942;49.304;8.256;2022-07-23T12:02:03;87.80;73.40;67.20
57037;PMS5003;59942;49.304;8.256;2022-07-23T12:04:44;81.80;67.40;58.20
57037;PMS5003;59942;49.304;8.256;2022-07-23T12:10:02;81.80;68.80;59.60
57037;PMS5003;59942;49.304;8.256;2022-07-23T12:12:38;83.60;69.60;62.40
57037;PMS5003;59942;49.304;8.256;2022-07-23T12:15:20;81.60;68.40;59.60
57037;PMS5003;59942;49.304;8.256;2022-07-23T12:17:52;81.00;68.00;58.20
57037;PMS5003;59942;49.304;8.256;2022-07-23T12:20:21;81.40;68.40;59.40
57037;PMS5003;59942;49.304;8.256;2022-07-23T12:22:51;86.20;71.60;65.60
57037;PMS5003;59942;49.304;8.256;2022-07-23T12:25:23;83.40;68.40;60.00
57037;PMS5003;59942;49.304;8.256;2022-07-23T12:28:02;81.80;68.00;58.20
57037;PMS5003;59942;49.304;8.256;2022-07-23T12:30:34;82.20;68.20;59.00
57037;PMS5003;59942;49.304;8.256;2022-07-23T12:33:05;82.00;68.80;58.00
57037;PMS5003;59942;49.304;8.256;2022-07-23T12:35:38;82.80;68.20;58.60
57037;PMS5003;59942;49.304;8.256;2022-07-23T12:38:09;79.20;67.20;58.00
57037;PMS5003;59942;49.304;8.256;2022-07-23T12:43:09;83.60;70.20;60.60
57037;PMS5003;59942;49.304;8.256;2022-07-23T12:46:08;83.60;70.20;61.00
57037;PMS5003;59942;49.304;8.256;2022-07-23T12:51:37;82.00;69.00;60.00
57037;PMS5003;59942;49.304;8.256;2022-07-23T12:54:12;84.00;70.00;60.00
57037;PMS5003;59942;49.304;8.256;2022-07-23T12:56:40;95.00;77.20;65.40
57037;PMS5003;59942;49.304;8.256;2022-07-23T12:59:14;98.60;77.60;63.80
57037;PMS5003;59942;49.304;8.256;2022-07-23T13:01:56;95.80;78.00;63.20
57037;PMS5003;59942;49.304;8.256;2022-07-23T13:04:28;82.00;69.00;58.00
57037;PMS5003;59942;49.304;8.256;2022-07-23T13:06:56;94.20;74.20;61.00
57037;PMS5003;59942;49.304;8.256;2022-07-23T13:09:26;84.00;70.00;60.00
57037;PMS5003;59942;49.304;8.256;2022-07-23T13:11:58;88.00;72.60;61.40
57037;PMS5003;59942;49.304;8.256;2022-07-23T13:14:26;93.20;75.00;63.80
57037;PMS5003;59942;49.304;8.256;2022-07-23T13:16:57;78.00;66.00;55.00
57037;PMS5003;59942;49.304;8.256;2022-07-23T13:19:24;85.60;70.20;59.20
57037;PMS5003;59942;49.304;8.256;2022-07-23T13:21:53;82.80;69.40;59.20
57037;PMS5003;59942;49.304;8.256;2022-07-23T13:24:21;82.00;69.00;59.20
57037;PMS5003;59942;49.304;8.256;2022-07-23T13:26:48;79.80;67.80;55.80
57037;PMS5003;59942;49.304;8.256;2022-07-23T13:29:18;89.20;70.40;58.00
57037;PMS5003;59942;49.304;8.256;2022-07-23T13:31:46;83.60;70.00;59.00
57037;PMS5003;59942;49.304;8.256;2022-07-23T13:34:16;85.80;71.00;61.60
57037;PMS5003;59942;49.304;8.256;2022-07-23T13:36:43;86.20;72.00;58.00
57037;PMS5003;59942;49.304;8.256;2022-07-23T13:39:11;84.00;70.00;58.00
57037;PMS5003;59942;49.304;8.256;2022-07-23T13:41:38;89.20;72.80;62.80
57037;PMS5003;59942;49.304;8.256;2022-07-23T13:44:14;83.60;69.80;58.40
57037;PMS5003;59942;49.304;8.256;2022-07-23T13:46:41;82.60;69.80;59.60
57037;PMS5003;59942;49.304;8.256;2022-07-23T13:49:09;82.40;69.20;58.00
57037;PMS5003;59942;49.304;8.256;2022-07-23T13:51:39;81.20;68.20;57.00
57037;PMS5003;59942;49.304;8.256;2022-07-23T13:54:07;83.20;69.60;58.80
57037;PMS5003;59942;49.304;8.256;2022-07-23T13:56:35;79.80;67.80;57.00
57037;PMS5003;59942;49.304;8.256;2022-07-23T13:59:03;102.00;87.20;78.60
57037;PMS5003;59942;49.304;8.256;2022-07-23T14:01:32;81.60;69.00;58.00
57037;PMS5003;59942;49.304;8.256;2022-07-23T14:04:11;103.60;89.80;81.00
57037;PMS5003;59942;49.304;8.256;2022-07-23T14:06:38;78.80;66.80;55.00
57037;PMS5003;59942;49.304;8.256;2022-07-23T14:09:06;75.00;64.00;52.00
57037;PMS5003;59942;49.304;8.256;2022-07-23T14:11:34;78.20;66.20;54.20
57037;PMS5003;59942;49.304;8.256;2022-07-23T14:14:01;79.00;67.00;56.60
57037;PMS5003;59942;49.304;8.256;2022-07-23T14:16:29;80.20;68.20;58.00
57037;PMS5003;59942;49.304;8.256;2022-07-23T14:18:56;81.00;69.00;57.60
57037;PMS5003;59942;49.304;8.256;2022-07-23T14:21:23;79.00;67.00;57.00
57037;PMS5003;59942;49.304;8.256;2022-07-23T14:23:50;79.00;67.00;55.00
57037;PMS5003;59942;49.304;8.256;2022-07-23T14:26:18;80.20;68.20;58.00
57037;PMS5003;59942;49.304;8.256;2022-07-23T14:28:45;78.00;66.00;55.00
57037;PMS5003;59942;49.304;8.256;2022-07-23T14:31:14;83.60;70.40;61.00
57037;PMS5003;59942;49.304;8.256;2022-07-23T14:33:46;83.00;69.80;60.20
57037;PMS5003;59942;49.304;8.256;2022-07-23T14:36:14;81.00;69.00;58.00
57037;PMS5003;59942;49.304;8.256;2022-07-23T14:38:42;80.60;68.60;57.80
57037;PMS5003;59942;49.304;8.256;2022-07-23T14:41:09;84.00;70.00;61.00
57037;PMS5003;59942;49.304;8.256;2022-07-23T14:43:37;82.40;69.20;59.80
57037;PMS5003;59942;49.304;8.256;2022-07-23T14:46:04;83.20;69.60;58.40
57037;PMS5003;59942;49.304;8.256;2022-07-23T14:48:32;79.00;67.00;56.20
57037;PMS5003;59942;49.304;8.256;2022-07-23T14:50:59;82.40;69.20;59.60
57037;PMS5003;59942;49.304;8.256;2022-07-23T14:53:27;81.80;69.00;58.00
57037;PMS5003;59942;49.304;8.256;2022-07-23T14:55:55;85.60;71.80;64.20
57037;PMS5003;59942;49.304;8.256;2022-07-23T14:58:23;84.20;70.40;61.00
57037;PMS5003;59942;49.304;8.256;2022-07-23T15:00:50;79.00;67.00;57.00
57037;PMS5003;59942;49.304;8.256;2022-07-23T15:03:17;79.00;67.00;57.00
57037;PMS5003;59942;49.304;8.256;2022-07-23T15:06:01;81.00;69.00;58.00
57037;PMS5003;59942;49.304;8.256;2022-07-23T15:08:28;82.00;69.00;58.00
57037;PMS5003;59942;49.304;8.256;2022-07-23T15:10:55;81.20;69.00;58.00
57037;PMS5003;59942;49.304;8.256;2022-07-23T15:13:22;82.00;69.00;59.20
57037;PMS5003;59942;49.304;8.256;2022-07-23T15:15:53;84.00;70.00;60.00
57037;PMS5003;59942;49.304;8.256;2022-07-23T15:18:22;79.00;67.00;55.40
57037;PMS5003;59942;49.304;8.256;2022-07-23T15:20:49;84.00;70.00;61.00
57037;PMS5003;59942;49.304;8.256;2022-07-23T15:23:17;84.20;70.60;62.00
57037;PMS5003;59942;49.304;8.256;2022-07-23T15:25:44;81.00;69.00;58.00
57037;PMS5003;59942;49.304;8.256;2022-07-23T15:28:16;81.60;69.00;58.00
57037;PMS5003;59942;49.304;8.256;2022-07-23T15:30:47;86.40;72.60;63.20
57037;PMS5003;59942;49.304;8.256;2022-07-23T15:33:19;81.00;69.00;58.00
57037;PMS5003;59942;49.304;8.256;2022-07-23T15:35:47;82.80;69.40;60.00
57037;PMS5003;59942;49.304;8.256;2022-07-23T15:38:14;81.80;69.00;59.60
57037;PMS5003;59942;49.304;8.256;2022-07-23T15:40:50;81.40;68.60;58.00
57037;PMS5003;59942;49.304;8.256;2022-07-23T15:43:18;82.00;69.00;59.40
57037;PMS5003;59942;49.304;8.256;2022-07-23T15:45:45;84.80;70.60;62.40
57037;PMS5003;59942;49.304;8.256;2022-07-23T15:48:12;86.40;71.80;64.40
57037;PMS5003;59942;49.304;8.256;2022-07-23T15:50:43;84.80;70.40;61.40
57037;PMS5003;59942;49.304;8.256;2022-07-23T15:53:11;81.20;69.00;58.00
57037;PMS5003;59942;49.304;8.256;2022-07-23T15:55:41;82.00;69.00;60.00
57037;PMS5003;59942;49.304;8.256;2022-07-23T15:58:12;81.60;69.00;58.00
57037;PMS5003;59942;49.304;8.256;2022-07-23T16:00:40;80.60;68.20;58.00
57037;PMS5003;59942;49.304;8.256;2022-07-23T16:03:11;81.80;69.00;58.00
57037;PMS5003;59942;49.304;8.256;2022-07-23T16:05:40;81.60;69.00;58.80
57037;PMS5003;59942;49.304;8.256;2022-07-23T16:08:07;82.00;69.00;60.00
57037;PMS5003;59942;49.304;8.256;2022-07-23T16:10:35;80.60;68.60;58.00
57037;PMS5003;59942;49.304;8.256;2022-07-23T16:13:02;81.00;69.00;58.00
57037;PMS5003;59942;49.304;8.256;2022-07-23T16:15:30;80.40;68.40;58.00
57037;PMS5003;59942;49.304;8.256;2022-07-23T16:17:57;83.00;69.80;60.60
57037;PMS5003;59942;49.304;8.256;2022-07-23T16:20:24;88.80;73.40;67.60
57037;PMS5003;59942;49.304;8.256;2022-07-23T16:22:51;80.20;68.20;57.80
57037;PMS5003;59942;49.304;8.256;2022-07-23T16:25:18;79.80;67.80;57.60
57037;PMS5003;59942;49.304;8.256;2022-07-23T16:27:46;79.80;67.80;58.00
57037;PMS5003;59942;49.304;8.256;2022-07-23T16:30:13;79.80;67.80;57.80
57037;PMS5003;59942;49.304;8.256;2022-07-23T16:32:40;79.80;67.80;57.20
57037;PMS5003;59942;49.304;8.256;2022-07-23T16:35:09;79.40;67.40;58.00
57037;PMS5003;59942;49.304;8.256;2022-07-23T16:37:48;80.20;67.80;57.00
57037;PMS5003;59942;49.304;8.256;2022-07-23T16:40:15;79.40;67.40;57.00
57037;PMS5003;59942;49.304;8.256;2022-07-23T16:42:42;83.40;69.80;61.20
57037;PMS5003;59942;49.304;8.256;2022-07-23T16:45:09;78.20;66.20;54.80
57037;PMS5003;59942;49.304;8.256;2022-07-23T16:47:37;81.60;69.00;58.40